Terminal Aerodrome Forecast
Issued by NWS King Salmon, AK

Home | Current Version | Previous Version | Text Only | Print | Product List | Glossary On
Versions: 1 2 3 4 5 6 7 8 9 10 11 12 13 14 15 16 17 18 19 20 21 22 23 24
000
FTAK31 PANC 162332 AAC
TAFAKN
TAF AMD
PAKN 162332Z 1700/1718 VRB03KT P6SM SCT003
      TEMPO 1700/1702 5SM BR
     FM170300 VRB04KT P6SM SCT045
     FM171500 05010KT P6SM BKN030=

USA.gov is the U.S. government's official web portal to all federal, state and local government web resources and services.